createdAt,value
2018-07-21T00:01:09.983Z,20.70
2018-07-21T00:03:38.604Z,20.70
2018-07-21T00:06:07.211Z,20.80
2018-07-21T00:08:35.780Z,20.70
2018-07-21T00:11:04.357Z,20.70
2018-07-21T00:13:32.975Z,20.70
2018-07-21T00:16:01.576Z,20.80
2018-07-21T00:18:30.209Z,20.80
2018-07-21T00:20:58.846Z,20.70
2018-07-21T00:23:27.423Z,20.60
2018-07-21T00:25:56.128Z,20.70
2018-07-21T00:28:24.673Z,20.70
2018-07-21T00:30:53.402Z,20.70
2018-07-21T00:33:21.961Z,20.90
2018-07-21T00:35:50.519Z,21.00
2018-07-21T00:38:19.107Z,21.10
2018-07-21T00:40:47.717Z,21.10
2018-07-21T00:43:16.427Z,21.20
2018-07-21T00:45:45.036Z,21.10
2018-07-21T00:48:13.619Z,21.00
2018-07-21T00:50:42.263Z,20.90
2018-07-21T00:53:10.991Z,20.80
2018-07-21T00:55:39.557Z,20.70
2018-07-21T00:58:08.131Z,20.70
2018-07-21T01:00:36.767Z,20.70
2018-07-21T01:03:05.403Z,20.80
2018-07-21T01:05:33.995Z,20.70
2018-07-21T01:08:02.590Z,20.70
2018-07-21T01:10:31.261Z,20.70
2018-07-21T01:12:59.893Z,20.60
2018-07-21T01:15:28.519Z,20.60
2018-07-21T01:17:57.203Z,20.70
2018-07-21T01:20:25.892Z,20.70
2018-07-21T01:22:54.460Z,20.70
2018-07-21T01:25:23.085Z,20.60
2018-07-21T01:27:51.717Z,20.70
2018-07-21T01:30:20.292Z,20.60
2018-07-21T01:32:48.826Z,20.60
2018-07-21T01:35:17.440Z,20.60
2018-07-21T01:37:46.053Z,20.70
2018-07-21T01:40:14.678Z,20.70
2018-07-21T01:42:43.218Z,20.60
2018-07-21T01:45:11.804Z,20.50
2018-07-21T01:47:40.350Z,20.60
2018-07-21T01:50:08.912Z,20.60
2018-07-21T01:52:37.501Z,20.60
2018-07-21T01:55:06.293Z,20.60
2018-07-21T01:57:34.897Z,20.70
2018-07-21T02:00:03.554Z,20.60
2018-07-21T02:02:32.113Z,20.60
2018-07-21T02:05:00.669Z,20.50
2018-07-21T02:07:29.252Z,20.30
2018-07-21T02:09:57.911Z,20.40
2018-07-21T02:12:26.484Z,20.40
2018-07-21T02:14:55.164Z,20.50
2018-07-21T02:17:24.862Z,20.50
2018-07-21T02:19:53.540Z,20.50
2018-07-21T02:22:22.090Z,20.50
2018-07-21T02:24:50.652Z,20.50
2018-07-21T02:27:19.206Z,20.50
2018-07-21T02:29:47.809Z,20.70
2018-07-21T02:32:16.366Z,20.60
2018-07-21T02:34:44.929Z,20.60
2018-07-21T02:37:13.558Z,20.50
2018-07-21T02:39:42.199Z,20.50
2018-07-21T02:42:10.811Z,20.40
2018-07-21T02:44:39.441Z,20.30
2018-07-21T02:47:08.545Z,20.30
2018-07-21T02:49:37.131Z,20.30
2018-07-21T02:52:05.718Z,20.30
2018-07-21T02:54:34.325Z,20.30
2018-07-21T02:57:02.878Z,20.40
2018-07-21T02:59:31.548Z,20.40
2018-07-21T03:02:00.129Z,20.40
2018-07-21T03:04:28.676Z,20.40
2018-07-21T03:06:57.288Z,20.40
2018-07-21T03:09:28.316Z,20.30
2018-07-21T03:11:56.983Z,20.20
2018-07-21T03:14:26.134Z,20.20
2018-07-21T03:16:54.685Z,20.30
2018-07-21T03:19:23.271Z,20.20
2018-07-21T03:21:51.811Z,20.30
2018-07-21T03:24:20.373Z,20.20
2018-07-21T03:26:48.930Z,20.20
2018-07-21T03:29:17.530Z,20.20
2018-07-21T03:31:46.097Z,20.30
2018-07-21T03:34:14.671Z,20.20
2018-07-21T03:36:43.261Z,20.00
2018-07-21T03:39:12.425Z,20.00
2018-07-21T03:41:41.693Z,20.00
2018-07-21T03:44:10.236Z,20.00
2018-07-21T03:46:38.813Z,20.00
2018-07-21T03:49:07.381Z,20.00
2018-07-21T03:51:35.963Z,20.00
2018-07-21T03:54:04.531Z,20.00
2018-07-21T03:56:33.079Z,20.00
2018-07-21T03:59:01.621Z,20.10
2018-07-21T04:01:30.194Z,20.10
2018-07-21T04:03:58.811Z,20.10
2018-07-21T04:06:27.422Z,20.20
2018-07-21T04:08:56.150Z,20.10
2018-07-21T04:11:24.695Z,20.00
2018-07-21T04:13:53.286Z,20.10
2018-07-21T04:16:21.873Z,20.10
2018-07-21T04:18:50.517Z,20.00
2018-07-21T04:21:19.125Z,20.00
2018-07-21T04:23:47.741Z,19.90
2018-07-21T04:26:16.294Z,19.90
2018-07-21T04:28:44.864Z,19.90
2018-07-21T04:31:13.471Z,20.00
2018-07-21T04:33:42.054Z,20.00
2018-07-21T04:36:10.609Z,19.90
2018-07-21T04:38:39.180Z,19.90
2018-07-21T04:41:07.781Z,19.90
2018-07-21T04:43:36.345Z,20.00
2018-07-21T04:46:04.954Z,20.00
2018-07-21T04:48:33.547Z,19.90
2018-07-21T04:51:02.123Z,19.80
2018-07-21T04:53:30.664Z,19.90
2018-07-21T04:55:59.333Z,20.10
2018-07-21T04:58:27.960Z,20.20
2018-07-21T05:00:56.610Z,20.20
2018-07-21T05:03:25.129Z,20.30
2018-07-21T05:05:53.737Z,20.30
2018-07-21T05:08:22.390Z,20.10
2018-07-21T05:10:50.963Z,20.20
2018-07-21T05:13:19.517Z,20.10
2018-07-21T05:15:48.207Z,20.40
2018-07-21T05:18:16.837Z,20.50
2018-07-21T05:20:45.471Z,20.30
2018-07-21T05:23:14.180Z,20.60
2018-07-21T05:25:42.740Z,20.60
2018-07-21T05:28:11.381Z,20.70
2018-07-21T05:30:39.935Z,20.70
2018-07-21T05:33:08.505Z,20.70
2018-07-21T05:35:37.126Z,20.70
2018-07-21T05:38:05.683Z,20.90
2018-07-21T05:40:34.264Z,21.00
2018-07-21T05:43:02.943Z,21.00
2018-07-21T05:45:31.537Z,21.10
2018-07-21T05:48:00.121Z,21.10
2018-07-21T05:50:28.697Z,21.00
2018-07-21T05:52:57.278Z,21.00
2018-07-21T05:55:25.890Z,21.00
2018-07-21T05:57:54.462Z,20.80
2018-07-21T06:00:23.055Z,21.00
2018-07-21T06:02:51.782Z,21.00
2018-07-21T06:05:20.359Z,20.90
2018-07-21T06:07:48.929Z,20.70
2018-07-21T06:10:17.548Z,20.70
2018-07-21T06:12:46.284Z,21.10
2018-07-21T06:15:14.956Z,21.50
2018-07-21T06:17:43.583Z,21.80
2018-07-21T06:20:12.216Z,21.90
2018-07-21T06:22:40.838Z,22.20
2018-07-21T06:25:09.503Z,22.40
2018-07-21T06:27:38.042Z,22.40
2018-07-21T06:30:06.750Z,22.90
2018-07-21T06:32:35.357Z,23.30
2018-07-21T06:35:03.945Z,23.90
2018-07-21T06:37:32.514Z,24.20
2018-07-21T06:40:01.054Z,24.20
2018-07-21T06:42:29.636Z,24.30
2018-07-21T06:44:58.357Z,24.30
2018-07-21T06:47:26.986Z,24.20
2018-07-21T06:49:55.627Z,23.90
2018-07-21T06:52:24.216Z,23.50
2018-07-21T06:54:52.830Z,23.20
2018-07-21T06:57:21.438Z,22.90
2018-07-21T06:59:50.051Z,22.70
2018-07-21T07:02:18.641Z,22.60
2018-07-21T07:04:47.374Z,22.50
2018-07-21T07:07:15.984Z,22.40
2018-07-21T07:09:44.607Z,22.30
2018-07-21T07:12:13.234Z,22.20
2018-07-21T07:14:42.117Z,22.20
2018-07-21T07:17:10.743Z,22.10
2018-07-21T07:19:39.368Z,22.00
2018-07-21T07:22:07.982Z,22.10
2018-07-21T07:24:36.571Z,22.00
2018-07-21T07:27:05.531Z,22.00
2018-07-21T07:29:34.102Z,22.00
2018-07-21T07:32:02.670Z,21.90
2018-07-21T07:34:31.246Z,21.90
2018-07-21T07:37:00.002Z,21.80
2018-07-21T07:39:28.613Z,21.70
2018-07-21T07:41:57.196Z,21.70
2018-07-21T07:44:25.782Z,21.60
2018-07-21T07:46:54.394Z,21.50
2018-07-21T07:49:23.762Z,21.50
2018-07-21T07:51:52.510Z,21.40
2018-07-21T07:54:21.096Z,21.30
2018-07-21T07:56:49.670Z,21.30
2018-07-21T07:59:18.358Z,21.20
2018-07-21T08:01:46.918Z,21.10
2018-07-21T08:04:15.562Z,21.10
2018-07-21T08:06:44.226Z,21.30
2018-07-21T08:09:13.363Z,21.60
2018-07-21T08:11:42.670Z,22.00
2018-07-21T08:14:11.385Z,22.10
2018-07-21T08:16:39.972Z,22.40
2018-07-21T08:19:09.210Z,22.60
2018-07-21T08:21:37.836Z,22.50
2018-07-21T08:24:06.428Z,22.30
2018-07-21T08:26:35.058Z,22.20
2018-07-21T08:29:03.772Z,22.60
2018-07-21T08:31:32.454Z,22.70
2018-07-21T08:34:01.054Z,23.00
2018-07-21T08:36:29.634Z,23.50
2018-07-21T08:38:58.195Z,23.70
2018-07-21T08:41:26.846Z,24.10
2018-07-21T08:43:55.434Z,24.30
2018-07-21T08:46:24.031Z,24.30
2018-07-21T08:48:52.622Z,24.60
2018-07-21T08:51:21.253Z,24.40
2018-07-21T08:53:49.851Z,23.90
2018-07-21T08:56:18.464Z,23.60
2018-07-21T08:58:47.675Z,23.40
2018-07-21T09:01:16.250Z,23.10
2018-07-21T09:03:44.907Z,22.90
2018-07-21T09:06:13.584Z,22.90
2018-07-21T09:08:42.266Z,22.90
2018-07-21T09:11:10.896Z,22.90
2018-07-21T09:13:39.577Z,23.10
2018-07-21T09:16:08.336Z,23.30
2018-07-21T09:18:36.975Z,23.40
2018-07-21T09:21:05.832Z,23.40
2018-07-21T09:23:34.399Z,23.70
2018-07-21T09:26:02.956Z,23.90
2018-07-21T09:28:31.634Z,24.10
2018-07-21T09:31:00.267Z,24.50
2018-07-21T09:33:28.840Z,24.70
2018-07-21T09:35:57.438Z,24.80
2018-07-21T09:38:26.057Z,24.70
2018-07-21T09:40:54.674Z,24.60
2018-07-21T09:43:23.286Z,24.80
2018-07-21T09:45:51.843Z,24.80
2018-07-21T09:48:20.437Z,24.90
2018-07-21T09:50:49.211Z,24.90
2018-07-21T09:53:17.810Z,24.80
2018-07-21T09:55:46.502Z,24.90
2018-07-21T09:58:15.024Z,24.80
2018-07-21T10:00:48.876Z,24.90
2018-07-21T10:03:17.445Z,24.90
2018-07-21T10:05:46.034Z,24.80
2018-07-21T10:08:14.636Z,24.70
2018-07-21T10:10:43.202Z,24.70
2018-07-21T10:13:11.796Z,24.60
2018-07-21T10:15:40.375Z,24.70
2018-07-21T10:18:09.013Z,24.80
2018-07-21T10:20:37.590Z,24.80
2018-07-21T10:23:06.706Z,24.80
2018-07-21T10:25:40.686Z,24.70
2018-07-21T10:28:14.606Z,24.80
2018-07-21T10:30:43.158Z,24.50
2018-07-21T10:33:11.801Z,24.60
2018-07-21T10:35:40.317Z,24.80
2018-07-21T10:38:09.029Z,24.80
2018-07-21T10:40:37.522Z,24.60
2018-07-21T10:43:06.446Z,24.20
2018-07-21T10:45:35.086Z,24.00
2018-07-21T10:48:03.808Z,24.00
2018-07-21T10:50:32.442Z,24.10
2018-07-21T10:53:01.050Z,24.30
2018-07-21T10:55:29.728Z,24.60
2018-07-21T10:57:58.398Z,24.70
2018-07-21T11:00:26.983Z,24.70
2018-07-21T11:02:55.580Z,24.80
2018-07-21T11:05:24.208Z,25.00
2018-07-21T11:07:52.874Z,25.40
2018-07-21T11:10:21.534Z,25.40
2018-07-21T11:12:50.171Z,25.40
2018-07-21T11:15:18.846Z,25.50
2018-07-21T11:17:47.436Z,25.70
2018-07-21T11:20:16.145Z,25.50
2018-07-21T11:22:44.770Z,25.50
2018-07-21T11:25:13.415Z,25.50
2018-07-21T11:27:42.101Z,25.50
2018-07-21T11:30:10.794Z,25.40
2018-07-21T11:32:39.396Z,25.40
2018-07-21T11:35:08.039Z,25.40
2018-07-21T11:37:36.663Z,25.50
2018-07-21T11:40:05.465Z,25.60
2018-07-21T11:42:34.142Z,25.90
2018-07-21T11:45:02.786Z,26.30
2018-07-21T11:47:31.483Z,26.30
2018-07-21T11:50:00.071Z,26.40
2018-07-21T11:52:28.735Z,26.30
2018-07-21T11:54:57.391Z,26.30
2018-07-21T11:57:26.051Z,26.40
2018-07-21T11:59:54.687Z,26.30
2018-07-21T12:02:23.303Z,26.10
2018-07-21T12:04:51.920Z,26.10
2018-07-21T12:07:20.536Z,26.10
2018-07-21T12:09:49.115Z,26.10
2018-07-21T12:12:17.698Z,26.10
2018-07-21T12:14:46.318Z,26.10
2018-07-21T12:17:14.884Z,26.20
2018-07-21T12:19:43.521Z,25.70
2018-07-21T12:22:12.163Z,25.50
2018-07-21T12:24:40.782Z,25.30
2018-07-21T12:27:09.391Z,25.40
2018-07-21T12:29:38.898Z,25.30
2018-07-21T12:32:07.528Z,25.40
2018-07-21T12:34:36.210Z,25.60
2018-07-21T12:37:04.936Z,26.00
2018-07-21T12:39:33.556Z,26.40
2018-07-21T12:42:05.161Z,26.60
2018-07-21T12:44:33.788Z,26.70
2018-07-21T12:47:02.361Z,26.60
2018-07-21T12:49:31.039Z,26.50
2018-07-21T12:51:59.653Z,26.10
2018-07-21T12:54:28.311Z,25.90
2018-07-21T12:56:56.919Z,25.80
2018-07-21T12:59:25.522Z,25.80
2018-07-21T13:01:54.194Z,25.50
2018-07-21T13:04:22.803Z,25.40
2018-07-21T13:06:51.403Z,25.20
2018-07-21T13:09:20.016Z,25.30
2018-07-21T13:11:48.659Z,25.20
2018-07-21T13:14:17.278Z,25.40
2018-07-21T13:16:45.928Z,25.40
2018-07-21T13:19:14.594Z,25.50
2018-07-21T13:21:43.230Z,25.40
2018-07-21T13:24:11.854Z,25.30
2018-07-21T13:26:40.538Z,25.30
2018-07-21T13:29:09.218Z,25.00
2018-07-21T13:31:37.873Z,24.60
2018-07-21T13:34:06.500Z,24.50
2018-07-21T13:36:35.138Z,24.20
2018-07-21T13:39:05.894Z,24.20
2018-07-21T13:41:34.501Z,23.90
2018-07-21T13:44:03.163Z,23.60
2018-07-21T13:46:31.820Z,23.50
2018-07-21T13:49:00.552Z,23.50
2018-07-21T13:51:30.091Z,23.50
2018-07-21T13:53:58.799Z,23.60
2018-07-21T13:56:28.564Z,23.70
2018-07-21T13:58:57.278Z,23.80
2018-07-21T14:01:25.877Z,23.80
2018-07-21T14:03:54.546Z,23.70
2018-07-21T14:06:23.305Z,23.60
2018-07-21T14:08:51.934Z,23.70
2018-07-21T14:11:20.560Z,23.70
2018-07-21T14:13:49.178Z,23.70
2018-07-21T14:16:17.866Z,23.80
2018-07-21T14:18:46.486Z,23.90
2018-07-21T14:21:15.128Z,23.80
2018-07-21T14:23:43.728Z,23.90
2018-07-21T14:26:12.394Z,23.90
2018-07-21T14:28:40.954Z,23.80
2018-07-21T14:31:09.578Z,23.60
2018-07-21T14:33:38.206Z,23.40
2018-07-21T14:36:07.067Z,23.20
2018-07-21T14:38:35.516Z,23.10
2018-07-21T14:41:04.368Z,23.20
2018-07-21T14:43:33.058Z,23.30
2018-07-21T14:46:01.646Z,23.30
2018-07-21T14:48:30.377Z,23.50
2018-07-21T14:50:58.950Z,23.50
2018-07-21T14:53:27.532Z,23.50
2018-07-21T14:55:56.146Z,23.60
2018-07-21T14:58:24.758Z,23.60
2018-07-21T15:00:53.380Z,23.50
2018-07-21T15:03:22.207Z,23.30
2018-07-21T15:05:50.985Z,23.20
2018-07-21T15:08:19.593Z,23.10
2018-07-21T15:10:48.240Z,23.10
2018-07-21T15:13:16.958Z,23.20
2018-07-21T15:15:45.627Z,23.20
2018-07-21T15:18:14.207Z,23.20
2018-07-21T15:20:42.859Z,23.30
2018-07-21T15:23:11.504Z,23.20
2018-07-21T15:25:40.191Z,23.20
2018-07-21T15:28:08.911Z,23.20
2018-07-21T15:30:37.482Z,23.20
2018-07-21T15:33:06.115Z,23.20
2018-07-21T15:35:34.708Z,23.00
2018-07-21T15:38:03.401Z,22.80
2018-07-21T15:40:32.071Z,22.60
2018-07-21T15:43:00.754Z,22.50
2018-07-21T15:45:29.352Z,22.40
2018-07-21T15:47:57.943Z,22.50
2018-07-21T15:50:26.639Z,22.50
2018-07-21T15:52:55.240Z,22.50
2018-07-21T15:55:23.942Z,22.60
2018-07-21T15:57:52.965Z,22.50
2018-07-21T16:00:21.633Z,22.30
2018-07-21T16:02:50.315Z,22.20
2018-07-21T16:05:18.971Z,22.20
2018-07-21T16:07:47.626Z,22.20
2018-07-21T16:10:16.265Z,22.10
2018-07-21T16:12:44.867Z,22.00
2018-07-21T16:15:13.534Z,21.90
2018-07-21T16:17:42.125Z,21.80
2018-07-21T16:20:10.820Z,21.60
2018-07-21T16:22:39.434Z,21.50
2018-07-21T16:25:08.044Z,21.40
2018-07-21T16:27:36.714Z,21.40
2018-07-21T16:30:05.725Z,21.30
2018-07-21T16:32:34.552Z,21.30
2018-07-21T16:35:03.186Z,21.20
2018-07-21T16:37:31.873Z,21.10
2018-07-21T16:40:00.454Z,21.10
2018-07-21T16:42:29.198Z,21.00
2018-07-21T16:44:57.839Z,21.10
2018-07-21T16:47:26.482Z,21.10
2018-07-21T16:49:55.092Z,21.10
2018-07-21T16:52:23.682Z,21.10
2018-07-21T16:54:52.427Z,21.10
2018-07-21T16:57:21.071Z,21.10
2018-07-21T16:59:49.794Z,21.10
2018-07-21T17:02:18.427Z,21.10
2018-07-21T17:04:47.110Z,21.10
2018-07-21T17:07:15.742Z,21.10
2018-07-21T17:09:44.420Z,21.10
2018-07-21T17:12:13.170Z,21.00
2018-07-21T17:14:41.815Z,21.00
2018-07-21T17:17:10.388Z,21.00
2018-07-21T17:19:38.978Z,21.00
2018-07-21T17:22:07.572Z,20.90
2018-07-21T17:24:36.235Z,20.90
2018-07-21T17:27:05.254Z,20.90
2018-07-21T17:29:33.992Z,20.80
2018-07-21T17:32:02.566Z,20.90
2018-07-21T17:34:31.544Z,20.90
2018-07-21T17:37:00.140Z,20.80
2018-07-21T17:39:28.721Z,20.80
2018-07-21T17:41:57.350Z,20.70
2018-07-21T17:44:25.969Z,20.60
2018-07-21T17:46:54.530Z,20.60
2018-07-21T17:49:23.090Z,20.60
2018-07-21T17:51:51.717Z,20.60
2018-07-21T17:54:20.354Z,20.60
2018-07-21T17:56:49.267Z,20.70
2018-07-21T17:59:17.909Z,20.70
2018-07-21T18:01:46.548Z,20.70
2018-07-21T18:04:15.208Z,20.70
2018-07-21T18:06:43.875Z,20.70
2018-07-21T18:09:12.607Z,20.80
2018-07-21T18:11:41.265Z,20.80
2018-07-21T18:14:09.958Z,20.80
2018-07-21T18:16:38.722Z,20.90
2018-07-21T18:19:07.350Z,20.90
2018-07-21T18:21:36.113Z,21.00
2018-07-21T18:24:04.914Z,21.00
2018-07-21T18:26:33.620Z,21.00
2018-07-21T18:29:02.216Z,21.00
2018-07-21T18:31:30.812Z,21.10
2018-07-21T18:33:59.420Z,21.00
2018-07-21T18:36:28.239Z,20.90
2018-07-21T18:38:56.904Z,20.90
2018-07-21T18:41:25.527Z,20.80
2018-07-21T18:43:54.141Z,20.80
2018-07-21T18:46:22.742Z,20.70
2018-07-21T18:48:51.406Z,20.80
2018-07-21T18:51:19.984Z,20.80
2018-07-21T18:53:48.594Z,20.70
2018-07-21T18:56:17.203Z,20.70
2018-07-21T18:58:45.978Z,20.60
2018-07-21T19:01:14.575Z,20.60
2018-07-21T19:03:43.146Z,20.60
2018-07-21T19:06:11.708Z,20.70
2018-07-21T19:08:45.737Z,20.70
2018-07-21T19:11:14.417Z,20.60
2018-07-21T19:13:43.024Z,20.60
2018-07-21T19:18:50.884Z,20.70
2018-07-21T19:21:21.990Z,20.60
2018-07-21T19:23:51.562Z,20.60
2018-07-21T19:26:25.672Z,20.50
2018-07-21T19:28:54.422Z,20.50
2018-07-21T19:31:23.344Z,20.50
2018-07-21T19:33:52.285Z,20.60
2018-07-21T19:36:21.004Z,20.60
2018-07-21T19:38:49.901Z,20.70
2018-07-21T19:41:23.901Z,20.70
2018-07-21T19:43:52.650Z,20.60
2018-07-21T19:46:21.282Z,20.60
2018-07-21T19:48:49.915Z,20.50
2018-07-21T19:51:18.501Z,20.40
2018-07-21T19:53:47.147Z,20.40
2018-07-21T19:56:15.771Z,20.30
2018-07-21T19:58:44.451Z,20.30
2018-07-21T20:01:13.068Z,20.40
2018-07-21T20:03:41.635Z,20.50
2018-07-21T20:06:10.271Z,20.40
2018-07-21T20:08:38.983Z,20.40
2018-07-21T20:11:07.588Z,20.50
2018-07-21T20:13:36.208Z,20.60
2018-07-21T20:16:05.058Z,20.70
2018-07-21T20:18:33.677Z,20.70
2018-07-21T20:21:02.338Z,20.70
2018-07-21T20:23:30.950Z,20.60
2018-07-21T20:25:59.674Z,20.70
2018-07-21T20:28:28.330Z,20.60
2018-07-21T20:30:56.934Z,20.60
2018-07-21T20:33:25.537Z,20.60
2018-07-21T20:35:54.121Z,20.50
2018-07-21T20:38:22.804Z,20.50
2018-07-21T20:40:51.483Z,20.40
2018-07-21T20:43:20.220Z,20.40
2018-07-21T20:45:48.781Z,20.50
2018-07-21T20:48:17.382Z,20.50
2018-07-21T20:50:46.015Z,20.50
2018-07-21T20:53:14.658Z,20.60
2018-07-21T20:55:43.270Z,20.60
2018-07-21T20:58:11.899Z,20.40
2018-07-21T21:00:40.519Z,20.50
2018-07-21T21:03:09.099Z,20.40
2018-07-21T21:05:37.713Z,20.50
2018-07-21T21:08:06.339Z,20.50
2018-07-21T21:10:35.486Z,20.50
2018-07-21T21:13:04.079Z,20.40
2018-07-21T21:15:32.623Z,20.40
2018-07-21T21:18:01.221Z,20.30
2018-07-21T21:20:29.785Z,20.30
2018-07-21T21:22:58.397Z,20.30
2018-07-21T21:25:26.978Z,20.30
2018-07-21T21:27:55.532Z,20.30
2018-07-21T21:30:24.157Z,20.20
2018-07-21T21:32:52.775Z,20.30
2018-07-21T21:35:21.413Z,20.30
2018-07-21T21:37:50.270Z,20.20
2018-07-21T21:40:19.177Z,20.10
2018-07-21T21:42:47.791Z,20.00
2018-07-21T21:45:16.397Z,20.00
2018-07-21T21:47:45.007Z,19.90
2018-07-21T21:50:13.578Z,20.00
2018-07-21T21:52:43.855Z,20.00
2018-07-21T21:55:12.534Z,20.00
2018-07-21T21:57:41.128Z,19.90
2018-07-21T22:00:11.717Z,19.80
2018-07-21T22:02:40.701Z,19.70
2018-07-21T22:05:09.553Z,19.70
2018-07-21T22:07:38.478Z,19.80
2018-07-21T22:10:07.174Z,19.80
2018-07-21T22:12:36.401Z,19.70
2018-07-21T22:15:10.609Z,19.70
2018-07-21T22:17:39.268Z,19.70
2018-07-21T22:20:08.042Z,19.60
2018-07-21T22:22:36.674Z,19.70
2018-07-21T22:25:05.384Z,19.80
2018-07-21T22:27:33.936Z,19.90
2018-07-21T22:30:02.557Z,19.90
2018-07-21T22:32:31.147Z,19.90
2018-07-21T22:34:59.956Z,19.90
2018-07-21T22:37:28.584Z,19.90
2018-07-21T22:39:57.450Z,20.00
2018-07-21T22:42:26.169Z,20.10
2018-07-21T22:44:54.840Z,20.20
2018-07-21T22:47:23.478Z,20.10
2018-07-21T22:49:52.167Z,20.20
2018-07-21T22:52:20.745Z,20.20
2018-07-21T22:54:49.430Z,20.30
2018-07-21T22:57:18.092Z,20.30
2018-07-21T22:59:46.786Z,20.30
2018-07-21T23:02:15.453Z,20.40
2018-07-21T23:04:44.097Z,20.40
2018-07-21T23:07:12.795Z,20.30
2018-07-21T23:09:41.476Z,20.30
2018-07-21T23:12:10.164Z,20.30
2018-07-21T23:14:38.821Z,20.30
2018-07-21T23:17:07.730Z,20.30
2018-07-21T23:19:36.343Z,20.40
2018-07-21T23:22:04.979Z,20.40
2018-07-21T23:24:33.582Z,20.40
2018-07-21T23:27:02.199Z,20.40
2018-07-21T23:29:30.943Z,20.40
2018-07-21T23:31:59.646Z,20.40
2018-07-21T23:34:28.371Z,20.40
2018-07-21T23:36:57.042Z,20.30
2018-07-21T23:39:25.646Z,20.30
2018-07-21T23:41:54.542Z,20.20
2018-07-21T23:44:23.203Z,20.30
2018-07-21T23:46:51.819Z,20.20
2018-07-21T23:49:20.406Z,20.20
2018-07-21T23:51:49.019Z,20.30
2018-07-21T23:54:17.726Z,20.20
2018-07-21T23:56:46.322Z,20.20
2018-07-21T23:59:14.934Z,20.10
